Terminal Aerodrome Forecast
Issued by NWS Amarillo, TX

Current Version | Previous Version | Text Only | Print | Product List | Glossary On
Versions: 1 2 3 4 5 6 7 8 9 10 11 12 13 14 15 16 17 18 19 20 21 22 23 24 25 26 27 28 29 30 31 32 33 34 35 36 37
000
FTUS44 KAMA 220700 AAB
TAFDHT
TAF AMD
KDHT 220741Z 2208/2306 16009KT 6SM BR BKN005 OVC020
     FM221000 17010KT 3SM BR OVC002
     FM221500 19015KT P6SM SCT005 OVC015
     FM221900 19016G26KT P6SM SCT015 OVC030
     FM230100 17015KT P6SM OVC015=

USA.gov is the U.S. government's official web portal to all federal, state and local government web resources and services.